createdAt,value
2018-07-12T00:02:37.542Z,26.07
2018-07-12T00:05:17.373Z,23.92
2018-07-12T00:07:56.973Z,25.75
2018-07-12T00:10:36.628Z,23.05
2018-07-12T00:13:16.010Z,26.68
2018-07-12T00:15:55.510Z,19.32
2018-07-12T00:18:35.089Z,21.07
2018-07-12T00:21:14.699Z,18.82
2018-07-12T00:23:54.283Z,22.48
2018-07-12T00:26:33.833Z,23.25
2018-07-12T00:29:13.474Z,17.10
2018-07-12T00:31:53.152Z,20.43
2018-07-12T00:34:32.902Z,21.48
2018-07-12T00:37:12.405Z,26.77
2018-07-12T00:39:52.401Z,24.63
2018-07-12T00:42:31.881Z,17.32
2018-07-12T00:45:11.418Z,20.95
2018-07-12T00:47:51.038Z,19.05
2018-07-12T00:50:30.561Z,20.45
2018-07-12T00:53:10.206Z,21.62
2018-07-12T00:55:49.586Z,14.63
2018-07-12T00:58:29.354Z,20.27
2018-07-12T01:01:08.877Z,20.30
2018-07-12T01:03:48.492Z,22.25
2018-07-12T01:06:28.267Z,27.27
2018-07-12T01:09:07.941Z,23.05
2018-07-12T01:11:47.667Z,26.85
2018-07-12T01:14:27.260Z,19.15
2018-07-12T01:17:06.967Z,25.20
2018-07-12T01:19:46.605Z,20.27
2018-07-12T01:22:26.242Z,21.23
2018-07-12T01:25:05.837Z,21.73
2018-07-12T01:27:45.487Z,22.80
2018-07-12T01:30:25.153Z,16.80
2018-07-12T01:33:04.583Z,22.13
2018-07-12T01:35:44.237Z,28.42
2018-07-12T01:38:23.745Z,21.17
2018-07-12T01:41:03.318Z,38.25
2018-07-12T01:43:42.972Z,28.27
2018-07-12T01:46:22.742Z,24.47
2018-07-12T01:49:02.250Z,22.35
2018-07-12T01:51:41.835Z,24.30
2018-07-12T01:54:21.368Z,25.20
2018-07-12T01:57:00.935Z,26.37
2018-07-12T01:59:40.587Z,26.45
2018-07-12T02:02:20.050Z,32.60
2018-07-12T02:04:59.666Z,20.65
2018-07-12T02:07:39.481Z,19.73
2018-07-12T02:10:18.896Z,24.52
2018-07-12T02:12:58.532Z,25.15
2018-07-12T02:15:38.031Z,26.93
2018-07-12T02:18:17.524Z,20.05
2018-07-12T02:20:56.898Z,19.52
2018-07-12T02:23:36.493Z,23.25
2018-07-12T02:26:16.049Z,26.93
2018-07-12T02:28:59.955Z,20.92
2018-07-12T02:31:44.477Z,27.82
2018-07-12T02:34:23.946Z,22.02
2018-07-12T02:37:03.488Z,34.83
2018-07-12T02:39:43.138Z,24.52
2018-07-12T02:42:22.970Z,24.50
2018-07-12T02:45:02.446Z,25.48
2018-07-12T02:47:42.164Z,26.50
2018-07-12T02:50:21.939Z,24.12
2018-07-12T02:53:01.448Z,27.40
2018-07-12T02:55:40.979Z,29.40
2018-07-12T02:58:20.618Z,19.82
2018-07-12T03:01:00.183Z,31.07
2018-07-12T03:10:34.686Z,23.87
2018-07-12T03:13:14.245Z,32.85
2018-07-12T03:15:54.098Z,27.30
2018-07-12T03:18:33.484Z,22.42
2018-07-12T03:21:13.106Z,27.87
2018-07-12T03:23:52.941Z,25.40
2018-07-12T03:26:32.333Z,25.05
2018-07-12T03:29:11.935Z,30.90
2018-07-12T03:31:51.522Z,25.43
2018-07-12T03:34:31.237Z,30.37
2018-07-12T03:37:10.665Z,29.37
2018-07-12T03:39:50.246Z,18.90
2018-07-12T03:42:29.813Z,20.80
2018-07-12T03:45:09.347Z,21.52
2018-07-12T03:47:49.232Z,19.10
2018-07-12T03:50:28.878Z,20.72
2018-07-12T03:53:08.304Z,19.73
2018-07-12T03:55:48.052Z,17.30
2018-07-12T03:58:27.588Z,18.40
2018-07-12T04:01:07.231Z,21.75
2018-07-12T04:03:46.966Z,21.82
2018-07-12T04:06:26.461Z,15.63
2018-07-12T04:09:06.563Z,25.02
2018-07-12T04:11:45.965Z,21.77
2018-07-12T04:14:25.603Z,21.48
2018-07-12T04:17:05.251Z,24.00
2018-07-12T04:19:44.830Z,17.73
2018-07-12T04:22:24.843Z,27.70
2018-07-12T04:25:04.361Z,25.37
2018-07-12T04:27:43.948Z,29.90
2018-07-12T04:30:23.524Z,19.95
2018-07-12T04:33:03.101Z,22.32
2018-07-12T04:35:42.748Z,17.95
2018-07-12T04:38:22.306Z,23.67
2018-07-12T04:41:01.878Z,18.15
2018-07-12T04:43:41.341Z,21.02
2018-07-12T04:46:20.742Z,17.05
2018-07-12T04:49:00.338Z,20.32
2018-07-12T04:51:39.918Z,23.02
2018-07-12T04:54:19.602Z,24.85
2018-07-12T04:56:59.141Z,22.62
2018-07-12T04:59:38.721Z,22.10
2018-07-12T05:02:18.240Z,20.37
2018-07-12T05:04:58.030Z,13.80
2018-07-12T05:07:37.541Z,22.15
2018-07-12T05:10:17.529Z,15.58
2018-07-12T05:12:56.916Z,19.87
2018-07-12T05:15:30.428Z,15.55
2018-07-12T05:18:09.894Z,18.02
2018-07-12T05:20:49.431Z,11.93
2018-07-12T05:23:29.303Z,15.45
2018-07-12T05:26:08.889Z,17.35
2018-07-12T05:28:48.479Z,23.40
2018-07-12T05:31:28.022Z,16.23
2018-07-12T05:34:07.548Z,16.27
2018-07-12T05:37:00.299Z,14.23
2018-07-12T05:39:28.873Z,19.50
2018-07-12T05:41:57.116Z,14.30
2018-07-12T05:44:25.332Z,15.65
2018-07-12T05:46:53.646Z,12.78
2018-07-12T05:49:22.092Z,11.35
2018-07-12T05:51:50.347Z,13.13
2018-07-12T05:54:19.481Z,12.58
2018-07-12T05:56:48.031Z,10.75
2018-07-12T05:59:16.495Z,19.25
2018-07-12T06:01:56.214Z,9.55
2018-07-12T06:04:24.180Z,13.30
2018-07-12T06:06:52.433Z,10.65
2018-07-12T06:09:20.670Z,11.15
2018-07-12T06:11:48.914Z,11.20
2018-07-12T06:14:17.347Z,11.90
2018-07-12T06:16:45.573Z,13.00
2018-07-12T06:19:13.837Z,8.95
2018-07-12T06:21:42.072Z,7.37
2018-07-12T06:24:10.697Z,9.53
2018-07-12T06:26:39.102Z,10.38
2018-07-12T06:29:07.377Z,10.90
2018-07-12T06:31:35.681Z,7.62
2018-07-12T06:34:03.917Z,8.13
2018-07-12T06:36:32.706Z,8.45
2018-07-12T06:39:00.961Z,9.55
2018-07-12T06:41:29.463Z,9.00
2018-07-12T06:43:57.785Z,6.92
2018-07-12T06:46:26.066Z,9.00
2018-07-12T06:48:54.409Z,12.25
2018-07-12T06:51:22.675Z,9.45
2018-07-12T06:53:50.929Z,11.95
2018-07-12T06:56:19.145Z,11.05
2018-07-12T06:58:47.355Z,8.10
2018-07-12T07:01:15.590Z,9.48
2018-07-12T07:03:43.844Z,6.85
2018-07-12T07:06:12.077Z,11.65
2018-07-12T07:08:40.356Z,9.40
2018-07-12T07:11:08.681Z,12.28
2018-07-12T07:13:36.976Z,9.45
2018-07-12T07:16:05.205Z,10.23
2018-07-12T07:18:33.473Z,9.38
2018-07-12T07:21:01.723Z,8.10
2018-07-12T07:23:29.995Z,8.45
2018-07-12T07:25:58.007Z,6.70
2018-07-12T07:28:26.121Z,11.10
2018-07-12T07:30:57.173Z,9.45
2018-07-12T07:33:25.513Z,8.03
2018-07-12T07:35:53.699Z,8.25
2018-07-12T07:38:22.016Z,9.20
2018-07-12T07:40:50.472Z,8.20
2018-07-12T07:43:18.750Z,13.43
2018-07-12T07:45:47.752Z,10.60
2018-07-12T07:48:16.137Z,5.92
2018-07-12T07:50:44.441Z,7.12
2018-07-12T07:53:12.443Z,5.42
2018-07-12T07:55:40.977Z,6.85
2018-07-12T07:58:10.850Z,7.20
2018-07-12T08:00:41.604Z,8.53
2018-07-12T08:03:11.496Z,5.50
2018-07-12T08:05:43.206Z,8.25
2018-07-12T08:08:12.794Z,7.72
2018-07-12T08:10:42.063Z,9.23
2018-07-12T08:13:11.036Z,9.83
2018-07-12T08:15:39.434Z,6.90
2018-07-12T08:18:07.702Z,10.65
2018-07-12T08:20:35.997Z,5.15
2018-07-12T08:23:04.315Z,7.25
2018-07-12T08:25:33.169Z,6.90
2018-07-12T08:28:14.081Z,6.40
2018-07-12T08:30:42.317Z,5.95
2018-07-12T08:33:10.626Z,6.95
2018-07-12T08:35:38.954Z,5.05
2018-07-12T08:38:07.217Z,7.87
2018-07-12T08:40:35.519Z,4.55
2018-07-12T08:43:03.836Z,5.40
2018-07-12T08:45:32.081Z,7.33
2018-07-12T08:48:00.329Z,7.78
2018-07-12T08:50:28.805Z,5.47
2018-07-12T08:52:57.048Z,6.65
2018-07-12T08:55:26.051Z,6.30
2018-07-12T08:57:54.401Z,4.75
2018-07-12T09:00:22.727Z,7.03
2018-07-12T09:02:50.992Z,7.05
2018-07-12T09:05:19.181Z,9.90
2018-07-12T09:07:47.405Z,6.95
2018-07-12T09:10:16.271Z,4.95
2018-07-12T09:12:44.873Z,6.20
2018-07-12T09:15:13.531Z,4.33
2018-07-12T09:17:41.749Z,8.10
2018-07-12T09:20:10.012Z,4.58
2018-07-12T09:22:38.270Z,3.80
2018-07-12T09:25:07.062Z,6.08
2018-07-12T09:27:35.298Z,7.28
2018-07-12T09:30:04.391Z,6.67
2018-07-12T09:32:32.749Z,6.97
2018-07-12T09:35:01.479Z,7.58
2018-07-12T09:37:29.692Z,4.10
2018-07-12T09:39:58.075Z,5.90
2018-07-12T09:42:26.215Z,5.58
2018-07-12T09:44:54.494Z,5.58
2018-07-12T09:47:22.751Z,5.30
2018-07-12T09:49:51.120Z,7.65
2018-07-12T09:52:24.622Z,6.42
2018-07-12T09:54:52.849Z,7.50
2018-07-12T09:57:32.547Z,6.10
2018-07-12T10:00:00.895Z,4.17
2018-07-12T10:02:34.583Z,6.33
2018-07-12T10:05:03.055Z,7.15
2018-07-12T10:07:36.349Z,9.58
2018-07-12T10:10:05.029Z,10.75
2018-07-12T10:12:37.572Z,4.78
2018-07-12T10:15:10.992Z,6.05
2018-07-12T10:17:48.400Z,6.17
2018-07-12T10:20:16.623Z,11.95
2018-07-12T10:22:44.836Z,4.17
2018-07-12T10:25:12.806Z,8.33
2018-07-12T10:27:41.066Z,4.22
2018-07-12T10:30:09.269Z,5.53
2018-07-12T10:32:37.501Z,6.45
2018-07-12T10:35:05.750Z,5.35
2018-07-12T10:37:33.981Z,10.48
2018-07-12T10:40:02.241Z,8.58
2018-07-12T10:42:30.522Z,8.13
2018-07-12T10:44:58.740Z,7.10
2018-07-12T10:47:27.030Z,12.25
2018-07-12T10:49:55.260Z,6.55
2018-07-12T10:52:23.520Z,8.25
2018-07-12T10:54:51.850Z,5.42
2018-07-12T10:57:20.145Z,7.15
2018-07-12T10:59:48.415Z,8.08
2018-07-12T11:02:16.689Z,6.28
2018-07-12T11:04:44.966Z,7.05
2018-07-12T11:07:13.216Z,6.60
2018-07-12T11:09:41.482Z,6.58
2018-07-12T11:12:09.958Z,6.42
2018-07-12T11:14:38.210Z,8.15
2018-07-12T11:17:06.473Z,6.75
2018-07-12T11:19:34.755Z,6.00
2018-07-12T11:22:03.391Z,5.37
2018-07-12T11:24:32.595Z,8.50
2018-07-12T11:27:01.116Z,7.50
2018-07-12T11:29:40.674Z,11.80
2018-07-12T11:32:12.478Z,7.20
2018-07-12T11:34:41.570Z,7.10
2018-07-12T11:37:16.807Z,5.67
2018-07-12T11:39:46.216Z,5.05
2018-07-12T11:42:14.515Z,8.18
2018-07-12T11:44:42.814Z,7.33
2018-07-12T11:47:11.065Z,5.35
2018-07-12T11:49:39.303Z,5.75
2018-07-12T11:52:07.714Z,9.43
2018-07-12T11:54:35.994Z,4.42
2018-07-12T11:57:04.597Z,7.85
2018-07-12T11:59:32.825Z,6.55
2018-07-12T12:02:01.134Z,5.00
2018-07-12T12:04:29.328Z,8.15
2018-07-12T12:06:57.676Z,7.30
2018-07-12T12:09:26.146Z,5.05
2018-07-12T12:11:54.423Z,6.28
2018-07-12T12:14:22.781Z,6.55
2018-07-12T12:16:51.028Z,8.05
2018-07-12T12:19:19.308Z,6.80
2018-07-12T12:21:47.308Z,8.60
2018-07-12T12:24:15.837Z,4.58
2018-07-12T12:26:44.086Z,7.55
2018-07-12T12:29:12.361Z,3.90
2018-07-12T12:31:40.597Z,4.50
2018-07-12T12:34:08.829Z,5.00
2018-07-12T12:36:37.117Z,5.75
2018-07-12T12:39:06.228Z,4.90
2018-07-12T12:41:34.564Z,7.00
2018-07-12T12:44:02.798Z,7.03
2018-07-12T12:46:31.055Z,6.65
2018-07-12T12:48:59.299Z,9.30
2018-07-12T12:51:27.589Z,10.40
2018-07-12T12:53:55.819Z,7.17
2018-07-12T12:56:24.055Z,6.95
2018-07-12T12:58:52.616Z,8.30
2018-07-12T13:01:20.868Z,8.45
2018-07-12T13:03:49.105Z,9.98
2018-07-12T13:06:17.364Z,5.90
2018-07-12T13:08:45.613Z,8.93
2018-07-12T13:11:14.128Z,6.87
2018-07-12T13:13:42.386Z,10.10
2018-07-12T13:16:10.706Z,4.92
2018-07-12T13:18:38.969Z,6.53
2018-07-12T13:21:07.390Z,5.72
2018-07-12T13:23:35.622Z,4.80
2018-07-12T13:26:04.339Z,11.57
2018-07-12T13:28:32.557Z,9.65
2018-07-12T13:31:00.805Z,7.67
2018-07-12T13:33:29.040Z,6.25
2018-07-12T13:35:57.277Z,8.48
2018-07-12T13:38:25.515Z,6.10
2018-07-12T13:40:53.909Z,6.65
2018-07-12T13:43:22.127Z,8.88
2018-07-12T13:45:50.379Z,6.87
2018-07-12T13:48:18.378Z,8.03
2018-07-12T13:50:46.678Z,6.87
2018-07-12T13:53:14.931Z,8.00
2018-07-12T13:55:43.174Z,5.95
2018-07-12T13:58:11.537Z,9.30
2018-07-12T14:00:39.799Z,6.97
2018-07-12T14:03:08.041Z,7.55
2018-07-12T14:05:36.340Z,6.30
2018-07-12T14:08:04.664Z,6.83
2018-07-12T14:10:33.204Z,8.78
2018-07-12T14:13:01.446Z,4.50
2018-07-12T14:15:29.670Z,6.40
2018-07-12T14:17:57.935Z,6.35
2018-07-12T14:20:26.231Z,8.05
2018-07-12T14:22:54.466Z,7.35
2018-07-12T14:25:22.714Z,5.22
2018-07-12T14:27:51.330Z,9.05
2018-07-12T14:30:19.561Z,7.35
2018-07-12T14:32:47.815Z,8.18
2018-07-12T14:35:16.033Z,7.80
2018-07-12T14:37:44.299Z,6.22
2018-07-12T14:40:12.549Z,7.47
2018-07-12T14:42:40.829Z,7.58
2018-07-12T14:45:09.064Z,4.97
2018-07-12T14:47:37.298Z,5.67
2018-07-12T14:50:05.554Z,6.08
2018-07-12T14:52:33.779Z,6.33
2018-07-12T14:55:02.237Z,6.67
2018-07-12T14:57:30.656Z,7.30
2018-07-12T14:59:59.042Z,5.35
2018-07-12T15:02:27.287Z,5.35
2018-07-12T15:04:55.590Z,7.40
2018-07-12T15:07:23.809Z,5.00
2018-07-12T15:09:52.061Z,6.75
2018-07-12T15:12:20.343Z,5.78
2018-07-12T15:14:48.596Z,4.58
2018-07-12T15:17:16.946Z,7.40
2018-07-12T15:19:45.248Z,7.03
2018-07-12T15:22:13.478Z,5.92
2018-07-12T15:24:41.718Z,7.62
2018-07-12T15:27:10.306Z,9.20
2018-07-12T15:29:38.617Z,7.72
2018-07-12T15:32:06.798Z,8.35
2018-07-12T15:34:35.095Z,5.08
2018-07-12T15:37:03.388Z,6.05
2018-07-12T15:39:31.618Z,9.28
2018-07-12T15:41:59.881Z,8.00
2018-07-12T15:44:28.137Z,8.93
2018-07-12T15:46:56.378Z,7.17
2018-07-12T15:49:24.689Z,11.70
2018-07-12T15:51:53.026Z,22.60
2018-07-12T15:54:21.248Z,7.00
2018-07-12T15:56:49.536Z,7.42
2018-07-12T15:59:17.805Z,7.87
2018-07-12T16:01:46.118Z,6.58
2018-07-12T16:04:14.373Z,5.30
2018-07-12T16:06:42.832Z,5.45
2018-07-12T16:09:11.186Z,7.62
2018-07-12T16:11:40.184Z,9.20
2018-07-12T16:14:08.460Z,5.33
2018-07-12T16:16:36.730Z,9.48
2018-07-12T16:19:05.709Z,4.92
2018-07-12T16:21:33.987Z,7.78
2018-07-12T16:24:02.291Z,6.72
2018-07-12T16:26:30.541Z,10.45
2018-07-12T16:28:58.815Z,7.95
2018-07-12T16:31:27.094Z,7.90
2018-07-12T16:33:55.352Z,7.58
2018-07-12T16:36:23.602Z,4.72
2018-07-12T16:38:51.861Z,11.03
2018-07-12T16:41:21.321Z,8.03
2018-07-12T16:43:49.800Z,5.87
2018-07-12T16:46:18.005Z,5.00
2018-07-12T16:48:46.931Z,7.17
2018-07-12T16:51:15.180Z,6.28
2018-07-12T16:53:43.429Z,6.28
2018-07-12T16:56:11.714Z,8.05
2018-07-12T16:58:40.154Z,9.45
2018-07-12T17:01:08.393Z,6.70
2018-07-12T17:03:36.709Z,4.28
2018-07-12T17:06:05.109Z,6.70
2018-07-12T17:08:33.687Z,6.87
2018-07-12T17:11:02.016Z,10.10
2018-07-12T17:13:30.009Z,5.05
2018-07-12T17:15:58.256Z,5.65
2018-07-12T17:18:26.532Z,4.15
2018-07-12T17:20:56.328Z,5.72
2018-07-12T17:23:25.465Z,8.10
2018-07-12T17:25:53.789Z,6.42
2018-07-12T17:28:22.094Z,5.20
2018-07-12T17:30:50.401Z,4.83
2018-07-12T17:33:18.718Z,11.83
2018-07-12T17:35:47.053Z,5.87
2018-07-12T17:38:15.814Z,4.37
2018-07-12T17:40:44.137Z,7.35
2018-07-12T17:43:12.408Z,7.37
2018-07-12T17:45:41.038Z,6.60
2018-07-12T17:48:09.798Z,7.12
2018-07-12T17:50:39.012Z,4.90
2018-07-12T17:53:07.660Z,5.17
2018-07-12T17:55:35.998Z,7.10
2018-07-12T17:58:04.621Z,7.30
2018-07-12T18:00:32.861Z,6.55
2018-07-12T18:03:01.146Z,6.47
2018-07-12T18:05:29.522Z,4.97
2018-07-12T18:07:57.784Z,11.55
2018-07-12T18:10:26.033Z,5.75
2018-07-12T18:12:54.246Z,10.55
2018-07-12T18:15:22.490Z,5.83
2018-07-12T18:17:51.032Z,6.40
2018-07-12T18:20:19.411Z,9.18
2018-07-12T18:22:47.673Z,9.60
2018-07-12T18:25:15.977Z,7.70
2018-07-12T18:27:50.735Z,8.00
2018-07-12T18:30:19.097Z,4.60
2018-07-12T18:32:48.086Z,9.75
2018-07-12T18:35:16.343Z,9.40
2018-07-12T18:37:44.584Z,7.20
2018-07-12T18:40:12.834Z,6.67
2018-07-12T18:42:41.132Z,5.30
2018-07-12T18:45:09.156Z,7.40
2018-07-12T18:47:37.461Z,7.17
2018-07-12T18:50:05.746Z,6.50
2018-07-12T18:52:33.893Z,4.35
2018-07-12T18:55:02.118Z,5.37
2018-07-12T18:57:30.358Z,13.13
2018-07-12T18:59:59.009Z,3.95
2018-07-12T19:02:29.139Z,10.98
2018-07-12T19:04:57.349Z,6.00
2018-07-12T19:07:25.613Z,10.63
2018-07-12T19:09:54.709Z,7.92
2018-07-12T19:12:22.980Z,6.85
2018-07-12T19:14:51.313Z,8.80
2018-07-12T19:17:19.487Z,14.03
2018-07-12T19:19:47.830Z,7.28
2018-07-12T19:22:16.156Z,7.70
2018-07-12T19:24:44.397Z,7.10
2018-07-12T19:27:12.677Z,7.78
2018-07-12T19:29:40.931Z,8.03
2018-07-12T19:32:10.029Z,7.45
2018-07-12T19:34:38.639Z,9.80
2018-07-12T19:37:06.826Z,9.73
2018-07-12T19:39:35.051Z,8.38
2018-07-12T19:42:03.294Z,7.15
2018-07-12T19:44:31.663Z,8.98
2018-07-12T19:46:59.892Z,5.35
2018-07-12T19:49:28.135Z,4.65
2018-07-12T19:51:56.758Z,8.45
2018-07-12T19:54:27.329Z,8.48
2018-07-12T19:56:56.197Z,11.48
2018-07-12T19:59:24.809Z,11.88
2018-07-12T20:01:53.066Z,9.20
2018-07-12T20:04:21.318Z,11.48
2018-07-12T20:06:50.521Z,8.18
2018-07-12T20:09:18.755Z,11.43
2018-07-12T20:11:47.004Z,5.62
2018-07-12T20:14:15.224Z,9.30
2018-07-12T20:16:43.456Z,13.53
2018-07-12T20:19:11.714Z,10.60
2018-07-12T20:21:40.413Z,8.83
2018-07-12T20:24:09.061Z,9.35
2018-07-12T20:26:37.757Z,5.85
2018-07-12T20:29:06.057Z,10.90
2018-07-12T20:31:34.551Z,9.25
2018-07-12T20:34:02.798Z,7.55
2018-07-12T20:36:31.036Z,11.45
2018-07-12T20:38:59.379Z,9.68
2018-07-12T20:41:27.653Z,12.73
2018-07-12T20:43:55.886Z,12.73
2018-07-12T20:46:24.163Z,6.78
2018-07-12T20:48:52.372Z,6.80
2018-07-12T20:51:20.636Z,11.60
2018-07-12T20:53:48.872Z,12.05
2018-07-12T20:56:17.266Z,10.28
2018-07-12T20:58:45.503Z,19.48
2018-07-12T21:01:13.773Z,17.57
2018-07-12T21:03:42.000Z,8.30
2018-07-12T21:06:10.258Z,8.90
2018-07-12T21:08:38.652Z,7.78
2018-07-12T21:11:07.042Z,9.58
2018-07-12T21:13:35.608Z,8.68
2018-07-12T21:16:04.413Z,10.50
2018-07-12T21:18:32.690Z,11.38
2018-07-12T21:21:00.933Z,10.80
2018-07-12T21:23:29.239Z,9.53
2018-07-12T21:25:57.519Z,12.10
2018-07-12T21:28:25.751Z,9.13
2018-07-12T21:30:54.018Z,7.75
2018-07-12T21:33:22.386Z,10.70
2018-07-12T21:35:51.006Z,10.90
2018-07-12T21:38:19.313Z,8.15
2018-07-12T21:40:47.537Z,8.43
2018-07-12T21:43:15.775Z,13.22
2018-07-12T21:45:44.002Z,12.25
2018-07-12T21:48:12.228Z,9.30
2018-07-12T21:50:40.790Z,11.10
2018-07-12T21:53:09.031Z,6.67
2018-07-12T21:55:37.293Z,9.28
2018-07-12T21:58:06.061Z,8.60
2018-07-12T22:00:35.001Z,7.55
2018-07-12T22:03:03.268Z,13.30
2018-07-12T22:05:31.480Z,13.43
2018-07-12T22:08:18.196Z,12.10
2018-07-12T22:10:47.400Z,14.38
2018-07-12T22:13:16.192Z,12.43
2018-07-12T22:15:44.449Z,11.75
2018-07-12T22:18:12.732Z,11.40
2018-07-12T22:20:40.981Z,8.63
2018-07-12T22:23:09.236Z,7.97
2018-07-12T22:25:37.556Z,7.97
2018-07-12T22:28:05.810Z,11.25
2018-07-12T22:30:34.107Z,10.30
2018-07-12T22:33:03.368Z,11.05
2018-07-12T22:35:31.750Z,9.68
2018-07-12T22:38:01.180Z,12.80
2018-07-12T22:40:29.974Z,9.20
2018-07-12T22:42:58.642Z,6.90
2018-07-12T22:45:26.872Z,15.18
2018-07-12T22:47:55.276Z,11.80
2018-07-12T22:50:23.837Z,9.63
2018-07-12T22:52:52.247Z,10.08
2018-07-12T22:55:20.473Z,9.33
2018-07-12T22:57:48.468Z,13.62
2018-07-12T23:00:16.720Z,12.40
2018-07-12T23:02:44.986Z,8.58
2018-07-12T23:05:13.339Z,9.08
2018-07-12T23:07:41.604Z,11.57
2018-07-12T23:10:09.882Z,15.18
2018-07-12T23:12:38.230Z,10.15
2018-07-12T23:15:06.633Z,8.88
2018-07-12T23:17:35.717Z,8.55
2018-07-12T23:20:04.619Z,10.82
2018-07-12T23:22:32.845Z,9.55
2018-07-12T23:25:01.082Z,13.68
2018-07-12T23:27:29.310Z,7.62
2018-07-12T23:29:57.430Z,11.45
2018-07-12T23:32:25.767Z,10.32
2018-07-12T23:34:54.071Z,8.50
2018-07-12T23:37:22.282Z,8.18
2018-07-12T23:39:50.522Z,11.00
2018-07-12T23:42:18.746Z,8.35
2018-07-12T23:44:46.987Z,10.03
2018-07-12T23:47:15.214Z,10.93
2018-07-12T23:49:43.505Z,11.88
2018-07-12T23:52:11.703Z,8.13
2018-07-12T23:54:39.921Z,11.83
2018-07-12T23:57:08.136Z,6.33
2018-07-12T23:59:36.356Z,10.13
